createdAt,value
2023-05-04T00:00:41.579Z,3.30
2023-05-04T00:02:03.597Z,3.33
2023-05-04T00:03:32.601Z,3.26
2023-05-04T00:05:05.973Z,3.00
2023-05-04T00:06:27.872Z,3.44
2023-05-04T00:08:01.453Z,3.78
2023-05-04T00:09:23.099Z,3.28
2023-05-04T00:10:49.120Z,3.57
2023-05-04T00:12:23.484Z,3.38
2023-05-04T00:13:45.025Z,3.63
2023-05-04T00:15:06.850Z,3.51
2023-05-04T00:16:38.483Z,3.82
2023-05-04T00:18:00.694Z,3.61
2023-05-04T00:19:22.115Z,3.53
2023-05-04T00:20:46.315Z,3.59
2023-05-04T00:22:08.144Z,3.87
2023-05-04T00:23:30.057Z,3.39
2023-05-04T00:24:59.161Z,3.21
2023-05-04T00:26:21.090Z,3.68
2023-05-04T00:27:56.696Z,3.12
2023-05-04T00:29:21.063Z,3.74
2023-05-04T00:30:42.482Z,3.82
2023-05-04T00:32:04.970Z,3.28
2023-05-04T00:33:28.905Z,3.22
2023-05-04T00:34:58.257Z,3.42
2023-05-04T00:36:20.271Z,3.54
2023-05-04T00:37:43.723Z,3.75
2023-05-04T00:39:05.837Z,3.70
2023-05-04T00:40:27.345Z,3.87
2023-05-04T00:41:48.907Z,4.07
2023-05-04T00:43:10.810Z,3.98
2023-05-04T00:44:41.517Z,4.02
2023-05-04T00:46:03.752Z,3.59
2023-05-04T00:47:32.738Z,3.68
2023-05-04T00:48:59.336Z,3.99
2023-05-04T00:50:21.120Z,3.65
2023-05-04T00:51:42.584Z,4.28
2023-05-04T00:53:04.505Z,4.24
2023-05-04T00:54:26.293Z,4.43
2023-05-04T00:55:48.014Z,4.97
2023-05-04T00:57:09.695Z,4.49
2023-05-04T00:58:45.463Z,4.62
2023-05-04T01:00:08.631Z,4.45
2023-05-04T01:01:30.465Z,4.21
2023-05-04T01:02:55.237Z,4.07
2023-05-04T01:04:16.922Z,4.43
2023-05-04T01:05:38.846Z,4.71
2023-05-04T01:07:08.213Z,4.44
2023-05-04T01:08:30.009Z,4.68
2023-05-04T01:09:52.171Z,4.12
2023-05-04T01:11:15.325Z,4.07
2023-05-04T01:12:37.163Z,4.15
2023-05-04T01:13:58.958Z,4.70
2023-05-04T01:15:20.537Z,4.57
2023-05-04T01:16:54.241Z,4.59
2023-05-04T01:18:16.493Z,4.68
2023-05-04T01:19:56.955Z,4.65
2023-05-04T01:21:22.938Z,5.03
2023-05-04T01:22:52.481Z,5.08
2023-05-04T01:24:15.641Z,4.89
2023-05-04T01:25:46.629Z,4.67
2023-05-04T01:27:10.843Z,4.34
2023-05-04T01:28:32.774Z,4.51
2023-05-04T01:29:56.372Z,4.40
2023-05-04T01:31:20.212Z,4.76
2023-05-04T01:32:41.703Z,4.73
2023-05-04T01:34:03.400Z,4.79
2023-05-04T01:35:27.620Z,4.83
2023-05-04T01:37:01.410Z,4.88
2023-05-04T01:38:31.140Z,4.75
2023-05-04T01:39:55.765Z,4.77
2023-05-04T01:41:18.687Z,4.79
2023-05-04T01:42:40.512Z,4.87
2023-05-04T01:44:02.339Z,4.85
2023-05-04T01:45:25.996Z,4.62
2023-05-04T01:46:50.079Z,4.84
2023-05-04T01:48:12.417Z,4.93
2023-05-04T01:49:34.189Z,4.58
2023-05-04T01:51:04.670Z,4.75
2023-05-04T01:52:26.618Z,4.82
2023-05-04T01:54:00.187Z,5.25
2023-05-04T01:55:21.994Z,5.15
2023-05-04T01:56:45.877Z,5.17
2023-05-04T01:58:08.211Z,4.98
2023-05-04T01:59:32.056Z,4.99
2023-05-04T02:00:53.810Z,4.79
2023-05-04T02:02:27.865Z,4.98
2023-05-04T02:03:51.920Z,5.18
2023-05-04T02:05:13.541Z,5.30
2023-05-04T02:06:37.429Z,5.49
2023-05-04T02:08:01.491Z,5.24
2023-05-04T02:09:23.259Z,5.01
2023-05-04T02:10:47.812Z,5.15
2023-05-04T02:12:09.445Z,5.13
2023-05-04T02:13:31.963Z,5.46
2023-05-04T02:14:53.937Z,5.24
2023-05-04T02:16:17.884Z,4.80
2023-05-04T02:17:41.853Z,5.46
2023-05-04T02:19:03.849Z,4.85
2023-05-04T02:20:25.842Z,4.12
2023-05-04T02:21:47.729Z,4.15
2023-05-04T02:23:21.026Z,4.61
2023-05-04T02:24:45.976Z,4.81
2023-05-04T02:26:07.889Z,4.10
2023-05-04T02:27:39.198Z,4.59
2023-05-04T02:29:03.235Z,4.89
2023-05-04T02:30:27.424Z,4.47
2023-05-04T02:31:49.310Z,4.20
2023-05-04T02:33:11.123Z,4.90
2023-05-04T02:34:36.789Z,4.38
2023-05-04T02:35:58.779Z,4.21
2023-05-04T02:37:20.165Z,4.51
2023-05-04T02:38:41.988Z,4.66
2023-05-04T02:40:05.416Z,4.04
2023-05-04T02:41:27.087Z,3.94
2023-05-04T02:42:53.107Z,4.66
2023-05-04T02:44:21.861Z,4.71
2023-05-04T02:45:46.278Z,4.87
2023-05-04T02:47:10.123Z,4.54
2023-05-04T02:48:39.019Z,4.52
2023-05-04T02:50:06.012Z,4.73
2023-05-04T02:51:28.091Z,4.68
2023-05-04T02:52:49.625Z,4.81
2023-05-04T02:54:14.110Z,4.91
2023-05-04T02:55:36.184Z,4.13
2023-05-04T02:56:57.766Z,4.20
2023-05-04T02:58:19.290Z,4.25
2023-05-04T02:59:43.262Z,4.42
2023-05-04T03:01:05.273Z,4.65
2023-05-04T03:02:27.146Z,4.12
2023-05-04T03:03:48.986Z,4.30
2023-05-04T03:05:11.124Z,4.00
2023-05-04T03:06:35.486Z,4.46
2023-05-04T03:07:57.443Z,4.43
2023-05-04T03:09:18.945Z,3.99
2023-05-04T03:10:40.816Z,4.68
2023-05-04T03:12:05.120Z,4.91
2023-05-04T03:13:33.853Z,4.78
2023-05-04T03:14:56.957Z,4.73
2023-05-04T03:16:18.722Z,4.50
2023-05-04T03:17:40.679Z,4.70
2023-05-04T03:19:02.716Z,5.02
2023-05-04T03:20:24.689Z,4.69
2023-05-04T03:21:48.676Z,5.23
2023-05-04T03:23:10.584Z,5.10
2023-05-04T03:24:32.719Z,4.95
2023-05-04T03:25:57.254Z,4.10
2023-05-04T03:27:18.956Z,4.87
2023-05-04T03:28:41.144Z,4.69
2023-05-04T03:30:03.581Z,4.48
2023-05-04T03:31:25.408Z,4.04
2023-05-04T03:32:47.454Z,4.58
2023-05-04T03:34:26.692Z,4.48
2023-05-04T03:35:52.660Z,4.50
2023-05-04T03:37:14.707Z,5.05
2023-05-04T03:38:36.376Z,4.77
2023-05-04T03:39:58.586Z,4.58
2023-05-04T03:41:20.105Z,4.53
2023-05-04T03:42:49.350Z,4.40
2023-05-04T03:44:25.520Z,4.67
2023-05-04T03:45:47.024Z,4.46
2023-05-04T03:47:16.664Z,4.57
2023-05-04T03:48:38.600Z,4.72
2023-05-04T03:50:06.471Z,4.35
2023-05-04T03:51:40.237Z,5.10
2023-05-04T03:53:02.645Z,4.85
2023-05-04T03:54:24.277Z,4.99
2023-05-04T03:55:45.785Z,4.68
2023-05-04T03:57:07.496Z,4.96
2023-05-04T03:58:38.675Z,4.93
2023-05-04T04:00:03.023Z,4.44
2023-05-04T04:01:27.765Z,3.81
2023-05-04T04:02:51.702Z,4.43
2023-05-04T04:04:14.679Z,4.89
2023-05-04T04:05:38.636Z,5.21
2023-05-04T04:07:00.810Z,4.79
2023-05-04T04:08:23.568Z,4.46
2023-05-04T04:09:52.925Z,4.95
2023-05-04T04:11:14.504Z,4.57
2023-05-04T04:12:36.781Z,4.82
2023-05-04T04:14:01.209Z,4.65
2023-05-04T04:15:22.821Z,4.63
2023-05-04T04:16:44.661Z,5.06
2023-05-04T04:18:06.417Z,4.99
2023-05-04T04:19:43.910Z,5.36
2023-05-04T04:21:10.093Z,5.34
2023-05-04T04:22:33.920Z,6.53
2023-05-04T04:23:55.818Z,5.81
2023-05-04T04:25:17.657Z,6.03
2023-05-04T04:26:39.351Z,6.25
2023-05-04T04:28:01.125Z,5.81
2023-05-04T04:29:22.976Z,5.47
2023-05-04T04:30:46.862Z,5.14
2023-05-04T04:32:11.120Z,5.74
2023-05-04T04:33:35.397Z,5.33
2023-05-04T04:34:57.201Z,4.63
2023-05-04T04:36:18.907Z,4.82
2023-05-04T04:37:40.646Z,4.74
2023-05-04T04:39:02.326Z,4.67
2023-05-04T04:40:26.234Z,4.74
2023-05-04T04:41:48.064Z,4.34
2023-05-04T04:43:12.336Z,4.76
2023-05-04T04:44:36.052Z,4.87
2023-05-04T04:46:00.858Z,4.87
2023-05-04T04:47:22.660Z,4.87
2023-05-04T04:48:44.310Z,4.47
2023-05-04T04:50:06.750Z,4.86
2023-05-04T04:51:31.032Z,4.56
2023-05-04T04:52:52.933Z,4.69
2023-05-04T04:54:17.116Z,4.54
2023-05-04T04:55:39.592Z,5.33
2023-05-04T04:57:01.303Z,4.64
2023-05-04T04:58:22.658Z,4.98
2023-05-04T04:59:44.487Z,4.59
2023-05-04T05:01:08.210Z,4.55
2023-05-04T05:02:29.803Z,4.45
2023-05-04T05:04:03.497Z,4.60
2023-05-04T05:05:25.460Z,4.07
2023-05-04T05:06:49.855Z,4.47
2023-05-04T05:08:11.852Z,4.64
2023-05-04T05:09:35.835Z,4.50
2023-05-04T05:11:00.120Z,4.20
2023-05-04T05:12:23.717Z,3.63
2023-05-04T05:13:45.225Z,3.53
2023-05-04T05:15:07.439Z,3.66
2023-05-04T05:16:28.993Z,3.58
2023-05-04T05:17:50.537Z,3.94
2023-05-04T05:19:14.708Z,3.85
2023-05-04T05:20:36.559Z,3.57
2023-05-04T05:22:00.826Z,3.77
2023-05-04T05:23:22.461Z,3.44
2023-05-04T05:24:44.660Z,3.78
2023-05-04T05:26:09.418Z,3.49
2023-05-04T05:27:31.310Z,3.15
2023-05-04T05:28:55.338Z,3.49
2023-05-04T05:30:19.466Z,3.26
2023-05-04T05:31:41.519Z,3.69
2023-05-04T05:33:03.822Z,3.66
2023-05-04T05:34:27.708Z,3.51
2023-05-04T05:35:49.826Z,2.48
2023-05-04T05:37:11.784Z,2.69
2023-05-04T05:38:43.557Z,2.94
2023-05-04T05:40:08.091Z,2.97
2023-05-04T05:41:29.765Z,3.09
2023-05-04T05:43:05.882Z,3.01
2023-05-04T05:44:27.510Z,3.32
2023-05-04T05:45:51.412Z,2.95
2023-05-04T05:47:21.029Z,3.43
2023-05-04T05:48:42.931Z,4.42
2023-05-04T05:50:07.072Z,5.23
2023-05-04T05:51:31.021Z,4.91
2023-05-04T05:52:52.894Z,4.74
2023-05-04T05:54:17.302Z,3.52
2023-05-04T05:55:39.038Z,3.44
2023-05-04T05:57:03.406Z,3.10
2023-05-04T05:58:26.105Z,3.16
2023-05-04T05:59:50.431Z,3.62
2023-05-04T06:01:14.776Z,3.36
2023-05-04T06:02:51.196Z,3.57
2023-05-04T06:04:12.904Z,3.26
2023-05-04T06:05:42.092Z,3.53
2023-05-04T06:07:06.394Z,3.34
2023-05-04T06:08:28.402Z,3.38
2023-05-04T06:09:49.977Z,2.94
2023-05-04T06:11:11.860Z,2.94
2023-05-04T06:12:35.968Z,3.14
2023-05-04T06:14:09.685Z,2.92
2023-05-04T06:15:31.210Z,2.50
2023-05-04T06:16:52.721Z,3.34
2023-05-04T06:18:18.991Z,2.98
2023-05-04T06:19:40.954Z,3.58
2023-05-04T06:21:14.563Z,3.18
2023-05-04T06:22:38.596Z,3.14
2023-05-04T06:24:00.304Z,3.11
2023-05-04T06:25:22.213Z,2.98
2023-05-04T06:26:43.710Z,3.06
2023-05-04T06:28:07.639Z,3.01
2023-05-04T06:29:41.186Z,3.29
2023-05-04T06:31:06.244Z,3.51
2023-05-04T06:32:28.008Z,3.25
2023-05-04T06:33:49.772Z,3.44
2023-05-04T06:35:13.733Z,3.16
2023-05-04T06:36:35.915Z,3.05
2023-05-04T06:37:58.312Z,3.40
2023-05-04T06:39:19.865Z,2.62
2023-05-04T06:40:41.633Z,2.44
2023-05-04T06:42:03.752Z,2.57
2023-05-04T06:43:33.016Z,2.58
2023-05-04T06:44:55.071Z,2.70
2023-05-04T06:46:17.080Z,2.35
2023-05-04T06:47:38.841Z,2.62
2023-05-04T06:49:04.142Z,2.74
2023-05-04T06:50:25.643Z,2.59
2023-05-04T06:51:47.286Z,2.47
2023-05-04T06:53:16.807Z,2.65
2023-05-04T06:54:40.231Z,2.37
2023-05-04T06:56:02.635Z,2.25
2023-05-04T06:57:23.893Z,2.28
2023-05-04T06:58:46.155Z,2.30
2023-05-04T07:00:08.342Z,2.30
2023-05-04T07:01:29.949Z,2.26
2023-05-04T07:02:51.928Z,2.13
2023-05-04T07:04:16.372Z,2.30
2023-05-04T07:05:38.235Z,2.20
2023-05-04T07:07:00.621Z,2.54
2023-05-04T07:08:22.545Z,2.22
2023-05-04T07:09:50.274Z,2.19
2023-05-04T07:11:17.052Z,2.04
2023-05-04T07:12:39.749Z,2.48
2023-05-04T07:14:01.492Z,2.33
2023-05-04T07:15:22.893Z,2.36
2023-05-04T07:16:44.851Z,2.69
2023-05-04T07:18:14.130Z,3.20
2023-05-04T07:19:37.920Z,2.72
2023-05-04T07:21:16.113Z,2.70
2023-05-04T07:22:41.676Z,2.65
2023-05-04T07:24:04.651Z,2.39
2023-05-04T07:25:26.358Z,2.77
2023-05-04T07:26:48.446Z,2.29
2023-05-04T07:28:10.333Z,2.45
2023-05-04T07:29:32.312Z,2.09
2023-05-04T07:30:54.073Z,2.36
2023-05-04T07:32:18.327Z,2.47
2023-05-04T07:33:40.238Z,2.40
2023-05-04T07:35:04.584Z,2.69
2023-05-04T07:36:26.716Z,2.50
2023-05-04T07:37:51.600Z,2.46
2023-05-04T07:39:13.751Z,2.53
2023-05-04T07:40:35.600Z,2.50
2023-05-04T07:41:57.261Z,2.49
2023-05-04T07:43:18.841Z,2.57
2023-05-04T07:44:41.276Z,2.60
2023-05-04T07:46:03.407Z,2.48
2023-05-04T07:47:25.224Z,2.96
2023-05-04T07:48:47.472Z,2.60
2023-05-04T07:50:11.865Z,2.65
2023-05-04T07:51:33.615Z,2.66
2023-05-04T07:52:55.681Z,2.33
2023-05-04T07:54:17.438Z,2.68
2023-05-04T07:55:39.051Z,2.65
2023-05-04T07:57:03.746Z,2.50
2023-05-04T07:58:35.528Z,2.39
2023-05-04T08:00:00.011Z,2.79
2023-05-04T08:01:21.357Z,2.95
2023-05-04T08:02:50.467Z,2.62
2023-05-04T08:04:11.987Z,2.51
2023-05-04T08:05:36.019Z,2.57
2023-05-04T08:06:57.701Z,2.53
2023-05-04T08:08:30.906Z,2.41
2023-05-04T08:09:55.003Z,2.44
2023-05-04T08:11:20.518Z,2.39
2023-05-04T08:12:45.593Z,2.33
2023-05-04T08:14:08.183Z,2.37
2023-05-04T08:15:29.918Z,2.20
2023-05-04T08:16:52.158Z,2.63
2023-05-04T08:18:14.110Z,2.49
2023-05-04T08:19:35.910Z,2.39
2023-05-04T08:20:58.309Z,2.40
2023-05-04T08:22:22.258Z,2.40
2023-05-04T08:23:48.530Z,2.26
2023-05-04T08:25:12.550Z,2.37
2023-05-04T08:28:33.532Z,2.13
2023-05-04T08:30:06.951Z,2.38
2023-05-04T08:31:28.232Z,2.40
2023-05-04T08:32:52.953Z,2.42
2023-05-04T08:34:14.961Z,2.21
2023-05-04T08:35:43.924Z,2.59
2023-05-04T08:37:07.792Z,2.07
2023-05-04T08:38:29.999Z,2.48
2023-05-04T08:39:52.082Z,2.75
2023-05-04T08:41:13.800Z,2.56
2023-05-04T08:42:35.364Z,2.69
2023-05-04T08:44:04.617Z,2.76
2023-05-04T08:45:26.444Z,2.79
2023-05-04T08:46:54.337Z,2.93
2023-05-04T08:48:16.286Z,2.48
2023-05-04T08:49:40.301Z,2.90
2023-05-04T08:51:02.050Z,2.54
2023-05-04T08:52:24.692Z,2.42
2023-05-04T08:53:48.893Z,2.66
2023-05-04T08:55:18.070Z,2.42
2023-05-04T08:56:40.154Z,2.56
2023-05-04T08:58:02.003Z,2.59
2023-05-04T08:59:23.465Z,2.63
2023-05-04T09:00:47.928Z,2.53
2023-05-04T09:02:09.760Z,2.39
2023-05-04T09:03:31.603Z,2.62
2023-05-04T09:04:53.421Z,2.48
2023-05-04T09:06:15.138Z,2.52
2023-05-04T09:07:38.985Z,2.70
2023-05-04T09:09:03.653Z,2.95
2023-05-04T09:10:26.893Z,2.33
2023-05-04T09:11:52.839Z,2.36
2023-05-04T09:13:14.977Z,2.11
2023-05-04T09:14:36.772Z,2.43
2023-05-04T09:15:59.062Z,2.82
2023-05-04T09:17:28.466Z,2.69
2023-05-04T09:18:50.507Z,2.61
2023-05-04T09:20:13.677Z,2.42
2023-05-04T09:21:35.208Z,2.62
2023-05-04T09:22:56.857Z,2.72
2023-05-04T09:24:20.585Z,2.58
2023-05-04T09:25:44.577Z,2.46
2023-05-04T09:27:13.729Z,2.70
2023-05-04T09:28:35.654Z,2.71
2023-05-04T09:29:59.841Z,2.41
2023-05-04T09:31:29.042Z,2.43
2023-05-04T09:32:51.220Z,2.49
2023-05-04T09:34:25.652Z,2.79
2023-05-04T09:35:50.337Z,2.51
2023-05-04T09:37:19.647Z,2.46
2023-05-04T09:38:41.421Z,2.59
2023-05-04T09:40:03.469Z,2.54
2023-05-04T09:41:25.482Z,2.70
2023-05-04T09:42:56.052Z,2.48
2023-05-04T09:44:29.973Z,2.27
2023-05-04T09:45:52.426Z,2.58
2023-05-04T09:47:25.904Z,2.47
2023-05-04T09:48:50.185Z,2.50
2023-05-04T09:50:19.149Z,2.21
2023-05-04T09:51:55.880Z,2.53
2023-05-04T09:53:17.925Z,2.11
2023-05-04T09:54:41.446Z,2.59
2023-05-04T09:56:05.766Z,2.42
2023-05-04T09:57:31.462Z,2.11
2023-05-04T09:58:53.334Z,2.62
2023-05-04T10:00:16.086Z,2.79
2023-05-04T10:01:39.990Z,2.38
2023-05-04T10:03:09.679Z,2.47
2023-05-04T10:04:43.293Z,2.54
2023-05-04T10:06:19.296Z,2.27
2023-05-04T10:07:41.617Z,2.48
2023-05-04T10:09:15.585Z,2.49
2023-05-04T10:10:37.519Z,2.44
2023-05-04T10:12:01.559Z,2.54
2023-05-04T10:13:25.618Z,2.75
2023-05-04T10:14:50.176Z,2.57
2023-05-04T10:16:24.577Z,2.44
2023-05-04T10:17:48.528Z,2.53
2023-05-04T10:19:10.550Z,2.66
2023-05-04T10:20:32.139Z,2.37
2023-05-04T10:21:56.188Z,2.63
2023-05-04T10:23:18.159Z,2.32
2023-05-04T10:24:40.441Z,2.51
2023-05-04T10:26:02.725Z,2.41
2023-05-04T10:27:24.258Z,2.33
2023-05-04T10:28:46.186Z,2.63
2023-05-04T10:30:10.857Z,2.73
2023-05-04T10:31:34.752Z,2.55
2023-05-04T10:33:02.197Z,2.65
2023-05-04T10:34:31.286Z,2.23
2023-05-04T10:35:55.306Z,2.49
2023-05-04T10:37:17.284Z,2.66
2023-05-04T10:38:41.464Z,2.64
2023-05-04T10:40:07.799Z,2.66
2023-05-04T10:41:43.952Z,2.36
2023-05-04T10:43:13.703Z,2.30
2023-05-04T10:44:35.752Z,2.66
2023-05-04T10:45:57.921Z,2.67
2023-05-04T10:47:19.758Z,2.58
2023-05-04T10:48:41.629Z,2.25
2023-05-04T10:50:04.615Z,2.62
2023-05-04T10:51:38.754Z,2.35
2023-05-04T10:53:05.796Z,2.18
2023-05-04T10:54:27.350Z,2.49
2023-05-04T10:55:51.589Z,2.55
2023-05-04T10:57:14.489Z,2.40
2023-05-04T10:58:35.906Z,2.58
2023-05-04T10:59:58.178Z,2.54
2023-05-04T11:01:19.471Z,2.50
2023-05-04T11:02:41.230Z,2.49
2023-05-04T11:04:05.919Z,2.52
2023-05-04T11:05:28.234Z,2.88
2023-05-04T11:06:50.478Z,2.47
2023-05-04T11:08:24.222Z,2.90
2023-05-04T11:09:48.537Z,2.67
2023-05-04T11:11:17.736Z,2.95
2023-05-04T11:12:51.591Z,2.74
2023-05-04T11:14:13.242Z,2.61
2023-05-04T11:15:37.512Z,2.99
2023-05-04T11:17:03.892Z,2.92
2023-05-04T11:18:34.853Z,2.64
2023-05-04T11:20:03.932Z,2.84
2023-05-04T11:21:28.895Z,2.96
2023-05-04T11:22:53.642Z,2.77
2023-05-04T11:24:15.466Z,2.55
2023-05-04T11:25:37.657Z,2.94
2023-05-04T11:27:03.406Z,2.33
2023-05-04T11:28:26.712Z,2.40
2023-05-04T11:29:53.162Z,2.56
2023-05-04T11:31:29.058Z,2.28
2023-05-04T11:32:54.015Z,2.64
2023-05-04T11:34:16.734Z,2.56
2023-05-04T11:35:38.554Z,2.51
2023-05-04T11:37:00.417Z,3.10
2023-05-04T11:38:22.158Z,2.68
2023-05-04T11:39:44.027Z,2.69
2023-05-04T11:41:05.708Z,2.47
2023-05-04T11:42:28.181Z,2.81
2023-05-04T11:43:58.888Z,2.89
2023-05-04T11:45:29.983Z,2.50
2023-05-04T11:46:56.200Z,3.08
2023-05-04T11:48:20.124Z,2.70
2023-05-04T11:50:01.466Z,2.93
2023-05-04T11:51:35.343Z,2.61
2023-05-04T11:52:57.308Z,2.72
2023-05-04T11:54:18.870Z,2.59
2023-05-04T11:55:41.103Z,2.72
2023-05-04T11:57:14.794Z,2.68
2023-05-04T11:58:48.113Z,2.57
2023-05-04T12:00:31.626Z,2.60
2023-05-04T12:02:05.221Z,2.76
2023-05-04T12:03:53.009Z,2.40
2023-05-04T12:05:18.419Z,2.88
2023-05-04T12:06:50.024Z,2.36
2023-05-04T12:08:23.963Z,2.69
2023-05-04T12:09:57.364Z,2.52
2023-05-04T12:11:32.589Z,2.43
2023-05-04T12:13:08.348Z,2.62
2023-05-04T12:14:30.058Z,2.77
2023-05-04T12:16:24.391Z,2.86
2023-05-04T12:18:02.511Z,2.88
2023-05-04T12:19:38.600Z,2.62
2023-05-04T12:21:12.022Z,2.34
2023-05-04T12:22:43.184Z,2.46
2023-05-04T12:24:07.958Z,2.46
2023-05-04T12:25:32.169Z,2.50
2023-05-04T12:26:54.157Z,2.41
2023-05-04T12:28:27.879Z,2.75
2023-05-04T12:30:03.754Z,2.62
2023-05-04T12:31:36.680Z,3.02
2023-05-04T12:33:10.278Z,2.90
2023-05-04T12:34:43.986Z,2.54
2023-05-04T12:36:06.293Z,2.50
2023-05-04T12:37:42.109Z,2.64
2023-05-04T12:39:28.084Z,2.87
2023-05-04T12:41:13.350Z,2.58
2023-05-04T12:42:43.423Z,2.61
2023-05-04T12:44:20.104Z,2.59
2023-05-04T12:46:03.427Z,2.33
2023-05-04T12:47:36.513Z,2.92
2023-05-04T12:48:58.647Z,2.80
2023-05-04T12:50:24.704Z,2.77
2023-05-04T12:52:05.525Z,2.38
2023-05-04T12:53:41.880Z,2.91
2023-05-04T12:55:34.054Z,2.62
2023-05-04T12:57:07.867Z,2.93
2023-05-04T12:58:29.416Z,3.00
2023-05-04T13:00:03.332Z,2.84
2023-05-04T13:01:32.464Z,2.69
2023-05-04T13:02:54.746Z,2.65
2023-05-04T13:04:16.617Z,2.66
2023-05-04T13:05:46.358Z,2.85
2023-05-04T13:07:19.890Z,2.59
2023-05-04T13:08:49.210Z,2.71
2023-05-04T13:10:15.280Z,2.62
2023-05-04T13:11:37.378Z,2.60
2023-05-04T13:13:10.509Z,2.54
2023-05-04T13:14:39.222Z,2.78
2023-05-04T13:16:05.930Z,2.68
2023-05-04T13:17:30.730Z,2.56
2023-05-04T13:19:06.227Z,2.54
2023-05-04T13:20:27.941Z,2.65
2023-05-04T13:21:52.093Z,2.61
2023-05-04T13:23:23.604Z,2.42
2023-05-04T13:24:45.362Z,2.57
2023-05-04T13:26:09.660Z,2.37
2023-05-04T13:27:33.385Z,2.56
2023-05-04T13:28:55.381Z,2.57
2023-05-04T13:30:18.279Z,2.20
2023-05-04T13:31:44.765Z,2.63
2023-05-04T13:33:16.754Z,2.80
2023-05-04T13:34:43.548Z,2.89
2023-05-04T13:36:05.705Z,2.38
2023-05-04T13:37:27.808Z,2.47
2023-05-04T13:38:49.746Z,2.91
2023-05-04T13:40:11.383Z,2.50
2023-05-04T13:41:35.710Z,2.56
2023-05-04T13:43:16.768Z,2.39
2023-05-04T13:44:41.201Z,2.97
2023-05-04T13:46:10.371Z,2.55
2023-05-04T13:47:34.397Z,3.67
2023-05-04T13:48:57.113Z,4.08
2023-05-04T13:50:26.554Z,2.54
2023-05-04T13:51:58.114Z,2.58
2023-05-04T13:53:24.804Z,2.33
2023-05-04T13:54:56.193Z,2.49
2023-05-04T13:56:20.506Z,2.59
2023-05-04T13:57:42.281Z,2.70
2023-05-04T13:59:06.222Z,2.63
2023-05-04T14:00:32.239Z,2.63
2023-05-04T14:01:54.155Z,2.41
2023-05-04T14:03:18.089Z,2.70
2023-05-04T14:04:40.054Z,2.78
2023-05-04T14:06:04.486Z,2.57
2023-05-04T14:07:28.262Z,2.39
2023-05-04T14:08:50.019Z,2.51
2023-05-04T14:10:11.802Z,2.64
2023-05-04T14:11:33.519Z,2.66
2023-05-04T14:12:57.415Z,2.58
2023-05-04T14:14:19.021Z,2.64
2023-05-04T14:15:41.007Z,2.60
2023-05-04T14:17:04.747Z,2.51
2023-05-04T14:18:27.875Z,2.83
2023-05-04T14:19:49.808Z,2.55
2023-05-04T14:21:14.113Z,2.50
2023-05-04T14:22:38.031Z,2.51
2023-05-04T14:24:07.350Z,2.57
2023-05-04T14:25:43.896Z,2.53
2023-05-04T14:27:08.405Z,2.56
2023-05-04T14:28:32.642Z,2.58
2023-05-04T14:29:58.011Z,2.58
2023-05-04T14:31:19.750Z,2.81
2023-05-04T14:32:51.499Z,2.90
2023-05-04T14:34:12.975Z,2.86
2023-05-04T14:35:37.443Z,2.68
2023-05-04T14:37:01.608Z,2.54
2023-05-04T14:38:23.503Z,2.86
2023-05-04T14:39:52.632Z,3.18
2023-05-04T14:41:33.426Z,2.91
2023-05-04T14:43:07.339Z,3.30
2023-05-04T14:44:31.585Z,2.55
2023-05-04T14:45:53.693Z,2.85
2023-05-04T14:47:27.743Z,2.48
2023-05-04T14:48:56.761Z,2.31
2023-05-04T14:50:25.923Z,2.63
2023-05-04T14:51:48.138Z,3.39
2023-05-04T14:53:30.264Z,2.97
2023-05-04T14:54:54.188Z,2.72
2023-05-04T14:56:15.880Z,2.43
2023-05-04T14:57:49.155Z,2.92
2023-05-04T14:59:22.682Z,2.96
2023-05-04T15:00:46.519Z,2.59
2023-05-04T15:02:08.159Z,2.81
2023-05-04T15:03:32.404Z,2.53
2023-05-04T15:04:53.854Z,2.66
2023-05-04T15:06:15.689Z,2.63
2023-05-04T15:07:37.912Z,2.68
2023-05-04T15:09:02.117Z,2.81
2023-05-04T15:10:23.768Z,2.57
2023-05-04T15:11:54.893Z,2.58
2023-05-04T15:13:17.856Z,2.58
2023-05-04T15:14:40.036Z,2.44
2023-05-04T15:16:02.228Z,2.69
2023-05-04T15:17:26.515Z,2.25
2023-05-04T15:18:48.515Z,2.50
2023-05-04T15:20:11.083Z,2.62
2023-05-04T15:21:32.995Z,2.69
2023-05-04T15:22:54.763Z,2.98
2023-05-04T15:24:16.447Z,2.51
2023-05-04T15:25:38.543Z,2.69
2023-05-04T15:27:01.953Z,2.74
2023-05-04T15:28:26.006Z,2.75
2023-05-04T15:29:50.268Z,2.43
2023-05-04T15:31:27.158Z,2.13
2023-05-04T15:32:51.527Z,2.69
2023-05-04T15:34:13.711Z,2.54
2023-05-04T15:35:36.534Z,2.74
2023-05-04T15:37:09.650Z,2.88
2023-05-04T15:38:31.248Z,2.90
2023-05-04T15:39:53.028Z,2.70
2023-05-04T15:41:27.468Z,2.25
2023-05-04T15:42:49.044Z,2.66
2023-05-04T15:44:10.697Z,2.76
2023-05-04T15:45:40.485Z,2.58
2023-05-04T15:47:08.634Z,2.78
2023-05-04T15:48:30.044Z,2.69
2023-05-04T15:49:52.475Z,2.61
2023-05-04T15:51:21.651Z,2.86
2023-05-04T15:52:43.722Z,2.86
2023-05-04T15:54:05.562Z,2.59
2023-05-04T15:55:27.483Z,2.73
2023-05-04T15:56:49.784Z,2.66
2023-05-04T15:58:22.957Z,2.56
2023-05-04T15:59:47.609Z,2.67
2023-05-04T16:01:13.887Z,2.84
2023-05-04T16:02:39.108Z,2.83
2023-05-04T16:04:02.106Z,2.60
2023-05-04T16:05:25.957Z,2.70
2023-05-04T16:06:57.573Z,2.55
2023-05-04T16:08:27.427Z,2.73
2023-05-04T16:09:48.974Z,2.37
2023-05-04T16:11:10.699Z,2.81
2023-05-04T16:12:32.741Z,2.53
2023-05-04T16:13:54.278Z,2.78
2023-05-04T16:15:16.182Z,2.66
2023-05-04T16:16:38.316Z,2.74
2023-05-04T16:18:00.305Z,2.84
2023-05-04T16:19:25.062Z,3.41
2023-05-04T16:20:46.595Z,3.26
2023-05-04T16:22:08.407Z,3.10
2023-05-04T16:23:30.435Z,3.25
2023-05-04T16:24:54.027Z,3.09
2023-05-04T16:26:16.114Z,2.61
2023-05-04T16:27:37.543Z,3.27
2023-05-04T16:28:59.258Z,2.84
2023-05-04T16:30:21.576Z,2.93
2023-05-04T16:31:43.642Z,3.03
2023-05-04T16:33:05.653Z,2.63
2023-05-04T16:34:27.288Z,2.99
2023-05-04T16:35:49.097Z,3.06
2023-05-04T16:37:11.564Z,3.14
2023-05-04T16:38:33.651Z,3.31
2023-05-04T16:39:57.396Z,2.94
2023-05-04T16:41:19.062Z,3.15
2023-05-04T16:42:43.279Z,2.88
2023-05-04T16:44:05.021Z,2.78
2023-05-04T16:45:34.461Z,2.91
2023-05-04T16:47:03.598Z,3.35
2023-05-04T16:48:25.718Z,3.47
2023-05-04T16:49:47.779Z,3.16
2023-05-04T16:51:09.320Z,3.65
2023-05-04T16:52:30.876Z,3.85
2023-05-04T16:53:52.534Z,3.86
2023-05-04T16:55:14.055Z,3.52
2023-05-04T16:56:36.569Z,3.84
2023-05-04T16:58:00.759Z,3.50
2023-05-04T16:59:24.527Z,3.57
2023-05-04T17:00:46.718Z,3.27
2023-05-04T17:02:08.658Z,3.19
2023-05-04T17:03:32.702Z,3.22
2023-05-04T17:05:01.591Z,3.68
2023-05-04T17:06:25.493Z,3.50
2023-05-04T17:07:47.378Z,3.46
2023-05-04T17:09:09.287Z,3.37
2023-05-04T17:10:30.672Z,3.24
2023-05-04T17:11:54.689Z,3.45
2023-05-04T17:13:18.961Z,3.16
2023-05-04T17:14:41.181Z,2.87
2023-05-04T17:16:03.316Z,3.12
2023-05-04T17:17:25.844Z,3.55
2023-05-04T17:18:47.848Z,2.93
2023-05-04T17:20:14.649Z,3.13
2023-05-04T17:21:36.480Z,3.09
2023-05-04T17:23:01.027Z,3.10
2023-05-04T17:24:22.513Z,3.26
2023-05-04T17:25:45.939Z,3.47
2023-05-04T17:27:07.462Z,3.56
2023-05-04T17:28:29.028Z,3.48
2023-05-04T17:29:51.034Z,3.25
2023-05-04T17:31:13.004Z,3.45
2023-05-04T17:32:37.317Z,3.61
2023-05-04T17:33:59.556Z,3.85
2023-05-04T17:35:25.959Z,3.38
2023-05-04T17:36:50.990Z,3.50
2023-05-04T17:38:12.937Z,3.43
2023-05-04T17:39:37.126Z,3.28
2023-05-04T17:40:58.901Z,3.48
2023-05-04T17:42:20.989Z,3.59
2023-05-04T17:43:45.604Z,3.12
2023-05-04T17:45:07.400Z,3.18
2023-05-04T17:46:33.937Z,3.54
2023-05-04T17:47:58.397Z,4.45
2023-05-04T17:49:20.896Z,5.43
2023-05-04T17:50:45.471Z,4.80
2023-05-04T17:52:07.617Z,4.47
2023-05-04T17:53:29.454Z,4.05
2023-05-04T17:54:51.225Z,4.28
2023-05-04T17:56:12.848Z,4.15
2023-05-04T17:57:34.642Z,4.16
2023-05-04T17:58:56.303Z,4.70
2023-05-04T18:00:18.100Z,4.85
2023-05-04T18:01:42.385Z,4.98
2023-05-04T18:03:04.254Z,5.07
2023-05-04T18:04:26.266Z,5.07
2023-05-04T18:05:48.428Z,6.30
2023-05-04T18:07:12.694Z,6.54
2023-05-04T18:08:36.843Z,6.18
2023-05-04T18:09:58.613Z,6.12
2023-05-04T18:11:20.815Z,6.10
2023-05-04T18:12:46.879Z,6.01
2023-05-04T18:14:10.856Z,5.83
2023-05-04T18:15:32.844Z,6.45
2023-05-04T18:16:56.674Z,5.51
2023-05-04T18:18:26.367Z,4.71
2023-05-04T18:19:48.090Z,4.78
2023-05-04T18:21:16.973Z,4.48
2023-05-04T18:22:38.807Z,4.27
2023-05-04T18:24:00.634Z,4.68
2023-05-04T18:25:22.265Z,4.81
2023-05-04T18:26:53.956Z,4.61
2023-05-04T18:28:16.024Z,4.12
2023-05-04T18:29:38.009Z,4.18
2023-05-04T18:31:02.175Z,4.11
2023-05-04T18:32:30.811Z,4.10
2023-05-04T18:33:57.185Z,4.02
2023-05-04T18:35:19.551Z,3.61
2023-05-04T18:36:40.989Z,3.62
2023-05-04T18:38:03.142Z,3.82
2023-05-04T18:39:24.708Z,4.20
2023-05-04T18:40:48.709Z,4.55
2023-05-04T18:42:22.077Z,3.65
2023-05-04T18:43:44.333Z,4.04
2023-05-04T18:45:08.389Z,4.17
2023-05-04T18:46:32.776Z,3.77
2023-05-04T18:47:54.530Z,4.13
2023-05-04T18:49:16.987Z,4.18
2023-05-04T18:50:39.074Z,3.97
2023-05-04T18:52:03.708Z,4.58